Terminal Aerodrome Forecast
Issued by NWS Wilmington, OH

Current Version | Previous Version | Text Only | Print | Product List | Glossary Off
Versions: 1 2 3 4 5 6 7 8 9 10 11 12 13 14 15 16 17 18 19 20 21 22 23 24

000
FTUS41 KILN 202340
TAFCVG
TAF
KCVG 202340Z 2100/2206 21006KT P6SM BKN040
     FM210700 17005KT P6SM BKN025
      TEMPO 2109/2113 5SM BR BKN010 OVC025
     FM211400 18006KT P6SM BKN025 BKN200
     FM211800 19008KT P6SM SCT040 BKN250
     FM220300 15004KT P6SM BKN070=

USA.gov is the U.S. government's official web portal to all federal, state and local government web resources and services.